sensor_id;sensor_type;location;lat;lon;timestamp;temperature;humidity
48515;DHT22;34309;47.260;2.796;2024-02-28T00:02:27;18.50;26.10
48515;DHT22;34309;47.260;2.796;2024-02-28T00:05:02;18.50;26.10
48515;DHT22;34309;47.260;2.796;2024-02-28T00:07:35;18.50;26.00
48515;DHT22;34309;47.260;2.796;2024-02-28T00:10:09;18.50;26.10
48515;DHT22;34309;47.260;2.796;2024-02-28T00:12:42;18.50;26.10
48515;DHT22;34309;47.260;2.796;2024-02-28T00:15:17;18.40;26.10
48515;DHT22;34309;47.260;2.796;2024-02-28T00:17:52;18.40;26.10
48515;DHT22;34309;47.260;2.796;2024-02-28T00:20:26;18.40;26.20
48515;DHT22;34309;47.260;2.796;2024-02-28T00:23:00;18.40;26.10
48515;DHT22;34309;47.260;2.796;2024-02-28T00:25:34;18.40;26.10
48515;DHT22;34309;47.260;2.796;2024-02-28T00:28:08;18.30;26.00
48515;DHT22;34309;47.260;2.796;2024-02-28T00:30:43;18.40;26.40
48515;DHT22;34309;47.260;2.796;2024-02-28T00:33:17;18.30;26.20
48515;DHT22;34309;47.260;2.796;2024-02-28T00:35:50;18.30;26.20
48515;DHT22;34309;47.260;2.796;2024-02-28T00:38:26;18.30;26.80
48515;DHT22;34309;47.260;2.796;2024-02-28T00:41:00;18.30;26.20
48515;DHT22;34309;47.260;2.796;2024-02-28T00:43:34;18.30;26.20
48515;DHT22;34309;47.260;2.796;2024-02-28T00:46:09;18.30;26.30
48515;DHT22;34309;47.260;2.796;2024-02-28T00:48:44;18.20;26.30
48515;DHT22;34309;47.260;2.796;2024-02-28T00:51:18;18.20;26.30
48515;DHT22;34309;47.260;2.796;2024-02-28T00:53:51;18.20;26.20
48515;DHT22;34309;47.260;2.796;2024-02-28T00:56:25;18.20;26.10
48515;DHT22;34309;47.260;2.796;2024-02-28T00:58:59;18.20;26.20
48515;DHT22;34309;47.260;2.796;2024-02-28T01:01:34;18.20;26.40
48515;DHT22;34309;47.260;2.796;2024-02-28T01:04:08;18.20;26.20
48515;DHT22;34309;47.260;2.796;2024-02-28T01:06:38;18.20;26.40
48515;DHT22;34309;47.260;2.796;2024-02-28T01:09:11;18.20;26.20
48515;DHT22;34309;47.260;2.796;2024-02-28T01:11:45;18.20;26.30
48515;DHT22;34309;47.260;2.796;2024-02-28T01:14:18;18.20;26.40
48515;DHT22;34309;47.260;2.796;2024-02-28T01:16:53;18.10;26.40
48515;DHT22;34309;47.260;2.796;2024-02-28T01:19:27;18.10;26.20
48515;DHT22;34309;47.260;2.796;2024-02-28T01:22:00;18.10;26.40
48515;DHT22;34309;47.260;2.796;2024-02-28T01:24:29;18.10;26.40
48515;DHT22;34309;47.260;2.796;2024-02-28T01:27:03;18.10;26.30
48515;DHT22;34309;47.260;2.796;2024-02-28T01:29:37;18.10;26.40
48515;DHT22;34309;47.260;2.796;2024-02-28T01:32:13;18.10;26.30
48515;DHT22;34309;47.260;2.796;2024-02-28T01:34:47;18.10;26.40
48515;DHT22;34309;47.260;2.796;2024-02-28T01:37:21;18.10;26.50
48515;DHT22;34309;47.260;2.796;2024-02-28T01:39:54;18.10;26.40
48515;DHT22;34309;47.260;2.796;2024-02-28T01:42:28;18.00;26.40
48515;DHT22;34309;47.260;2.796;2024-02-28T01:45:05;18.10;26.40
48515;DHT22;34309;47.260;2.796;2024-02-28T01:47:43;18.00;26.50
48515;DHT22;34309;47.260;2.796;2024-02-28T01:50:17;18.00;26.40
48515;DHT22;34309;47.260;2.796;2024-02-28T01:52:51;18.00;26.50
48515;DHT22;34309;47.260;2.796;2024-02-28T01:55:25;18.00;26.40
48515;DHT22;34309;47.260;2.796;2024-02-28T01:58:00;18.00;26.50
48515;DHT22;34309;47.260;2.796;2024-02-28T02:00:34;18.00;26.50
48515;DHT22;34309;47.260;2.796;2024-02-28T02:03:09;18.00;27.00
48515;DHT22;34309;47.260;2.796;2024-02-28T02:05:44;18.00;26.50
48515;DHT22;34309;47.260;2.796;2024-02-28T02:08:18;17.90;26.50
48515;DHT22;34309;47.260;2.796;2024-02-28T02:10:52;18.00;26.60
48515;DHT22;34309;47.260;2.796;2024-02-28T02:13:25;18.00;26.60
48515;DHT22;34309;47.260;2.796;2024-02-28T02:15:59;17.90;26.50
48515;DHT22;34309;47.260;2.796;2024-02-28T02:18:34;17.90;26.50
48515;DHT22;34309;47.260;2.796;2024-02-28T02:21:05;17.90;26.50
48515;DHT22;34309;47.260;2.796;2024-02-28T02:23:41;17.90;26.60
48515;DHT22;34309;47.260;2.796;2024-02-28T02:26:15;17.90;26.50
48515;DHT22;34309;47.260;2.796;2024-02-28T02:28:48;17.90;26.50
48515;DHT22;34309;47.260;2.796;2024-02-28T02:31:22;17.90;26.50
48515;DHT22;34309;47.260;2.796;2024-02-28T02:33:56;17.90;26.60
48515;DHT22;34309;47.260;2.796;2024-02-28T02:36:32;17.90;26.60
48515;DHT22;34309;47.260;2.796;2024-02-28T02:39:07;17.90;26.60
48515;DHT22;34309;47.260;2.796;2024-02-28T02:41:41;17.80;26.60
48515;DHT22;34309;47.260;2.796;2024-02-28T02:44:15;17.80;26.40
48515;DHT22;34309;47.260;2.796;2024-02-28T02:46:48;17.80;26.60
48515;DHT22;34309;47.260;2.796;2024-02-28T02:49:22;17.80;26.50
48515;DHT22;34309;47.260;2.796;2024-02-28T02:51:56;17.80;26.50
48515;DHT22;34309;47.260;2.796;2024-02-28T02:54:31;17.80;26.50
48515;DHT22;34309;47.260;2.796;2024-02-28T02:57:06;17.80;26.60
48515;DHT22;34309;47.260;2.796;2024-02-28T02:59:40;17.80;26.50
48515;DHT22;34309;47.260;2.796;2024-02-28T03:02:13;17.80;26.60
48515;DHT22;34309;47.260;2.796;2024-02-28T03:04:47;17.80;26.60
48515;DHT22;34309;47.260;2.796;2024-02-28T03:07:20;17.80;26.60
48515;DHT22;34309;47.260;2.796;2024-02-28T03:09:55;17.70;26.50
48515;DHT22;34309;47.260;2.796;2024-02-28T03:12:30;17.70;26.60
48515;DHT22;34309;47.260;2.796;2024-02-28T03:15:04;17.70;26.50
48515;DHT22;34309;47.260;2.796;2024-02-28T03:17:39;17.70;26.70
48515;DHT22;34309;47.260;2.796;2024-02-28T03:20:14;17.70;26.50
48515;DHT22;34309;47.260;2.796;2024-02-28T03:22:47;17.70;26.60
48515;DHT22;34309;47.260;2.796;2024-02-28T03:29:04;17.70;26.60
48515;DHT22;34309;47.260;2.796;2024-02-28T03:31:38;17.70;26.50
48515;DHT22;34309;47.260;2.796;2024-02-28T03:34:11;17.70;26.80
48515;DHT22;34309;47.260;2.796;2024-02-28T03:36:45;17.70;26.60
48515;DHT22;34309;47.260;2.796;2024-02-28T03:39:18;17.70;26.60
48515;DHT22;34309;47.260;2.796;2024-02-28T03:41:52;17.70;26.60
48515;DHT22;34309;47.260;2.796;2024-02-28T03:44:27;17.60;26.50
48515;DHT22;34309;47.260;2.796;2024-02-28T03:47:01;17.60;26.40
48515;DHT22;34309;47.260;2.796;2024-02-28T03:49:37;17.60;26.60
48515;DHT22;34309;47.260;2.796;2024-02-28T03:52:11;17.60;26.50
48515;DHT22;34309;47.260;2.796;2024-02-28T03:54:45;17.60;26.60
48515;DHT22;34309;47.260;2.796;2024-02-28T03:57:18;17.60;26.40
48515;DHT22;34309;47.260;2.796;2024-02-28T03:59:50;17.60;26.60
48515;DHT22;34309;47.260;2.796;2024-02-28T04:02:23;17.60;26.50
48515;DHT22;34309;47.260;2.796;2024-02-28T04:04:57;17.60;26.50
48515;DHT22;34309;47.260;2.796;2024-02-28T04:07:30;17.60;26.50
48515;DHT22;34309;47.260;2.796;2024-02-28T04:10:05;17.60;26.50
48515;DHT22;34309;47.260;2.796;2024-02-28T04:12:39;17.60;26.40
48515;DHT22;34309;47.260;2.796;2024-02-28T04:15:14;17.60;26.40
48515;DHT22;34309;47.260;2.796;2024-02-28T04:17:48;17.50;26.40
48515;DHT22;34309;47.260;2.796;2024-02-28T04:20:22;17.50;26.40
48515;DHT22;34309;47.260;2.796;2024-02-28T04:22:55;17.60;26.40
48515;DHT22;34309;47.260;2.796;2024-02-28T04:25:29;17.50;26.40
48515;DHT22;34309;47.260;2.796;2024-02-28T04:28:03;17.50;26.40
48515;DHT22;34309;47.260;2.796;2024-02-28T04:30:38;17.50;26.30
48515;DHT22;34309;47.260;2.796;2024-02-28T04:33:11;17.50;26.20
48515;DHT22;34309;47.260;2.796;2024-02-28T04:35:45;17.50;26.40
48515;DHT22;34309;47.260;2.796;2024-02-28T04:38:18;17.50;26.40
48515;DHT22;34309;47.260;2.796;2024-02-28T04:40:51;17.50;26.30
48515;DHT22;34309;47.260;2.796;2024-02-28T04:43:25;17.50;26.40
48515;DHT22;34309;47.260;2.796;2024-02-28T04:46:00;17.50;26.30
48515;DHT22;34309;47.260;2.796;2024-02-28T04:48:35;17.50;26.40
48515;DHT22;34309;47.260;2.796;2024-02-28T04:51:09;17.50;26.40
48515;DHT22;34309;47.260;2.796;2024-02-28T04:53:42;17.50;26.30
48515;DHT22;34309;47.260;2.796;2024-02-28T04:56:16;17.50;26.30
48515;DHT22;34309;47.260;2.796;2024-02-28T04:58:50;17.50;26.30
48515;DHT22;34309;47.260;2.796;2024-02-28T05:01:25;17.40;26.20
48515;DHT22;34309;47.260;2.796;2024-02-28T05:04:00;17.50;26.20
48515;DHT22;34309;47.260;2.796;2024-02-28T05:06:34;17.50;26.30
48515;DHT22;34309;47.260;2.796;2024-02-28T05:09:08;17.40;26.20
48515;DHT22;34309;47.260;2.796;2024-02-28T05:11:43;17.40;26.10
48515;DHT22;34309;47.260;2.796;2024-02-28T05:14:17;17.40;26.20
48515;DHT22;34309;47.260;2.796;2024-02-28T05:16:52;17.40;26.30
48515;DHT22;34309;47.260;2.796;2024-02-28T05:19:25;17.40;26.20
48515;DHT22;34309;47.260;2.796;2024-02-28T05:21:59;17.40;26.30
48515;DHT22;34309;47.260;2.796;2024-02-28T05:24:34;17.40;26.20
48515;DHT22;34309;47.260;2.796;2024-02-28T05:27:11;17.40;26.20
48515;DHT22;34309;47.260;2.796;2024-02-28T05:29:40;17.40;26.20
48515;DHT22;34309;47.260;2.796;2024-02-28T05:32:16;17.40;26.30
48515;DHT22;34309;47.260;2.796;2024-02-28T05:34:50;17.40;26.30
48515;DHT22;34309;47.260;2.796;2024-02-28T05:37:23;17.40;26.20
48515;DHT22;34309;47.260;2.796;2024-02-28T05:39:57;17.40;26.20
48515;DHT22;34309;47.260;2.796;2024-02-28T05:42:30;17.40;26.20
48515;DHT22;34309;47.260;2.796;2024-02-28T05:45:04;17.40;26.20
48515;DHT22;34309;47.260;2.796;2024-02-28T05:47:39;17.40;26.20
48515;DHT22;34309;47.260;2.796;2024-02-28T05:50:13;17.30;26.10
48515;DHT22;34309;47.260;2.796;2024-02-28T05:52:46;17.30;26.20
48515;DHT22;34309;47.260;2.796;2024-02-28T05:55:20;17.30;26.10
48515;DHT22;34309;47.260;2.796;2024-02-28T05:57:56;17.30;26.10
48515;DHT22;34309;47.260;2.796;2024-02-28T06:00:29;17.30;26.10
48515;DHT22;34309;47.260;2.796;2024-02-28T06:03:04;17.30;26.10
48515;DHT22;34309;47.260;2.796;2024-02-28T06:05:38;17.30;26.10
48515;DHT22;34309;47.260;2.796;2024-02-28T06:08:12;17.30;26.10
48515;DHT22;34309;47.260;2.796;2024-02-28T06:10:45;17.30;26.20
48515;DHT22;34309;47.260;2.796;2024-02-28T06:13:19;17.30;26.10
48515;DHT22;34309;47.260;2.796;2024-02-28T06:15:53;17.30;26.10
48515;DHT22;34309;47.260;2.796;2024-02-28T06:18:28;17.30;26.10
48515;DHT22;34309;47.260;2.796;2024-02-28T06:21:05;17.30;26.10
48515;DHT22;34309;47.260;2.796;2024-02-28T06:23:39;17.30;26.10
48515;DHT22;34309;47.260;2.796;2024-02-28T06:26:12;17.20;25.80
48515;DHT22;34309;47.260;2.796;2024-02-28T06:28:49;17.30;26.00
48515;DHT22;34309;47.260;2.796;2024-02-28T06:31:23;17.30;26.00
48515;DHT22;34309;47.260;2.796;2024-02-28T06:33:58;17.20;26.00
48515;DHT22;34309;47.260;2.796;2024-02-28T06:36:31;17.20;26.00
48515;DHT22;34309;47.260;2.796;2024-02-28T06:39:05;17.20;26.00
48515;DHT22;34309;47.260;2.796;2024-02-28T06:41:39;17.20;26.60
48515;DHT22;34309;47.260;2.796;2024-02-28T06:44:13;17.20;26.00
48515;DHT22;34309;47.260;2.796;2024-02-28T06:46:46;17.20;26.00
48515;DHT22;34309;47.260;2.796;2024-02-28T06:49:21;17.20;26.00
48515;DHT22;34309;47.260;2.796;2024-02-28T06:51:55;17.20;26.00
48515;DHT22;34309;47.260;2.796;2024-02-28T06:54:31;17.20;25.90
48515;DHT22;34309;47.260;2.796;2024-02-28T06:57:05;17.20;25.90
48515;DHT22;34309;47.260;2.796;2024-02-28T06:59:39;17.20;25.90
48515;DHT22;34309;47.260;2.796;2024-02-28T07:02:12;17.20;25.90
48515;DHT22;34309;47.260;2.796;2024-02-28T07:04:48;17.20;26.00
48515;DHT22;34309;47.260;2.796;2024-02-28T07:07:21;17.20;26.00
48515;DHT22;34309;47.260;2.796;2024-02-28T07:09:55;17.20;26.00
48515;DHT22;34309;47.260;2.796;2024-02-28T07:12:29;17.20;26.00
48515;DHT22;34309;47.260;2.796;2024-02-28T07:15:03;17.20;25.90
48515;DHT22;34309;47.260;2.796;2024-02-28T07:17:37;17.10;25.80
48515;DHT22;34309;47.260;2.796;2024-02-28T07:20:12;17.10;25.80
48515;DHT22;34309;47.260;2.796;2024-02-28T07:22:46;17.20;25.90
48515;DHT22;34309;47.260;2.796;2024-02-28T07:25:20;17.10;26.00
48515;DHT22;34309;47.260;2.796;2024-02-28T07:27:57;17.10;25.80
48515;DHT22;34309;47.260;2.796;2024-02-28T07:30:31;17.10;25.80
48515;DHT22;34309;47.260;2.796;2024-02-28T07:33:05;17.10;25.80
48515;DHT22;34309;47.260;2.796;2024-02-28T07:35:48;17.10;25.80
48515;DHT22;34309;47.260;2.796;2024-02-28T07:38:22;17.10;25.90
48515;DHT22;34309;47.260;2.796;2024-02-28T07:40:59;17.10;25.80
48515;DHT22;34309;47.260;2.796;2024-02-28T07:43:33;17.10;25.90
48515;DHT22;34309;47.260;2.796;2024-02-28T07:46:09;17.10;26.00
48515;DHT22;34309;47.260;2.796;2024-02-28T07:48:43;17.10;26.00
48515;DHT22;34309;47.260;2.796;2024-02-28T07:51:17;17.10;26.00
48515;DHT22;34309;47.260;2.796;2024-02-28T07:53:51;17.00;26.00
48515;DHT22;34309;47.260;2.796;2024-02-28T07:56:25;17.00;25.80
48515;DHT22;34309;47.260;2.796;2024-02-28T07:58:54;17.10;25.90
48515;DHT22;34309;47.260;2.796;2024-02-28T08:01:28;17.10;25.70
48515;DHT22;34309;47.260;2.796;2024-02-28T08:04:02;17.10;25.70
48515;DHT22;34309;47.260;2.796;2024-02-28T08:06:39;17.00;25.80
48515;DHT22;34309;47.260;2.796;2024-02-28T08:09:12;17.00;25.80
48515;DHT22;34309;47.260;2.796;2024-02-28T08:11:47;17.00;25.90
48515;DHT22;34309;47.260;2.796;2024-02-28T08:14:22;17.00;25.80
48515;DHT22;34309;47.260;2.796;2024-02-28T08:16:55;17.00;26.00
48515;DHT22;34309;47.260;2.796;2024-02-28T08:19:29;17.00;25.90
48515;DHT22;34309;47.260;2.796;2024-02-28T08:22:08;17.00;25.90
48515;DHT22;34309;47.260;2.796;2024-02-28T08:24:42;17.00;25.90
48515;DHT22;34309;47.260;2.796;2024-02-28T08:27:16;17.00;25.90
48515;DHT22;34309;47.260;2.796;2024-02-28T08:29:50;17.00;25.90
48515;DHT22;34309;47.260;2.796;2024-02-28T08:32:23;17.00;26.00
48515;DHT22;34309;47.260;2.796;2024-02-28T08:34:57;17.00;25.80
48515;DHT22;34309;47.260;2.796;2024-02-28T08:37:32;17.00;25.90
48515;DHT22;34309;47.260;2.796;2024-02-28T08:40:06;17.00;25.80
48515;DHT22;34309;47.260;2.796;2024-02-28T08:42:40;17.00;25.90
48515;DHT22;34309;47.260;2.796;2024-02-28T08:45:15;17.00;26.00
48515;DHT22;34309;47.260;2.796;2024-02-28T08:47:48;17.00;25.70
48515;DHT22;34309;47.260;2.796;2024-02-28T08:50:22;17.00;25.80
48515;DHT22;34309;47.260;2.796;2024-02-28T08:52:58;17.00;25.80
48515;DHT22;34309;47.260;2.796;2024-02-28T08:55:31;17.00;25.90
48515;DHT22;34309;47.260;2.796;2024-02-28T08:58:05;17.00;25.90
48515;DHT22;34309;47.260;2.796;2024-02-28T09:00:38;17.00;25.90
48515;DHT22;34309;47.260;2.796;2024-02-28T09:03:11;16.90;25.80
48515;DHT22;34309;47.260;2.796;2024-02-28T09:05:45;16.90;25.70
48515;DHT22;34309;47.260;2.796;2024-02-28T09:08:21;16.90;25.90
48515;DHT22;34309;47.260;2.796;2024-02-28T09:10:54;16.90;25.80
48515;DHT22;34309;47.260;2.796;2024-02-28T09:13:28;16.90;25.80
48515;DHT22;34309;47.260;2.796;2024-02-28T09:16:02;16.90;26.30
48515;DHT22;34309;47.260;2.796;2024-02-28T09:18:35;16.90;25.70
48515;DHT22;34309;47.260;2.796;2024-02-28T09:21:09;16.90;25.80
48515;DHT22;34309;47.260;2.796;2024-02-28T09:23:44;16.90;25.80
48515;DHT22;34309;47.260;2.796;2024-02-28T09:26:17;16.90;25.80
48515;DHT22;34309;47.260;2.796;2024-02-28T09:28:51;16.90;26.00
48515;DHT22;34309;47.260;2.796;2024-02-28T09:31:24;16.90;26.00
48515;DHT22;34309;47.260;2.796;2024-02-28T09:33:58;16.90;25.80
48515;DHT22;34309;47.260;2.796;2024-02-28T09:36:40;16.90;25.80
48515;DHT22;34309;47.260;2.796;2024-02-28T09:39:21;16.90;25.80
48515;DHT22;34309;47.260;2.796;2024-02-28T09:41:55;16.90;26.00
48515;DHT22;34309;47.260;2.796;2024-02-28T09:44:29;16.90;25.90
48515;DHT22;34309;47.260;2.796;2024-02-28T09:47:03;16.90;26.10
48515;DHT22;34309;47.260;2.796;2024-02-28T09:49:37;16.90;26.00
48515;DHT22;34309;47.260;2.796;2024-02-28T09:52:10;16.90;26.10
48515;DHT22;34309;47.260;2.796;2024-02-28T09:54:46;16.90;26.10
48515;DHT22;34309;47.260;2.796;2024-02-28T09:57:20;16.90;26.00
48515;DHT22;34309;47.260;2.796;2024-02-28T10:00:00;16.90;26.10
48515;DHT22;34309;47.260;2.796;2024-02-28T10:02:34;16.90;26.10
48515;DHT22;34309;47.260;2.796;2024-02-28T10:05:09;16.90;26.20
48515;DHT22;34309;47.260;2.796;2024-02-28T10:07:42;16.90;26.10
48515;DHT22;34309;47.260;2.796;2024-02-28T10:10:18;16.90;26.20
48515;DHT22;34309;47.260;2.796;2024-02-28T10:12:52;16.90;26.20
48515;DHT22;34309;47.260;2.796;2024-02-28T10:15:26;16.90;26.20
48515;DHT22;34309;47.260;2.796;2024-02-28T10:18:00;16.90;26.20
48515;DHT22;34309;47.260;2.796;2024-02-28T10:20:34;16.90;26.50
48515;DHT22;34309;47.260;2.796;2024-02-28T10:23:08;16.90;26.50
48515;DHT22;34309;47.260;2.796;2024-02-28T10:25:44;16.90;26.50
48515;DHT22;34309;47.260;2.796;2024-02-28T10:28:14;16.80;26.40
48515;DHT22;34309;47.260;2.796;2024-02-28T10:30:48;16.90;26.60
48515;DHT22;34309;47.260;2.796;2024-02-28T10:33:22;16.80;26.50
48515;DHT22;34309;47.260;2.796;2024-02-28T10:36:00;16.90;26.60
48515;DHT22;34309;47.260;2.796;2024-02-28T10:38:35;16.90;26.50
48515;DHT22;34309;47.260;2.796;2024-02-28T10:41:12;16.80;26.60
48515;DHT22;34309;47.260;2.796;2024-02-28T10:43:44;16.90;26.60
48515;DHT22;34309;47.260;2.796;2024-02-28T10:46:20;16.90;26.60
48515;DHT22;34309;47.260;2.796;2024-02-28T10:48:57;16.90;26.80
48515;DHT22;34309;47.260;2.796;2024-02-28T10:51:34;16.90;26.70
48515;DHT22;34309;47.260;2.796;2024-02-28T10:54:09;16.90;26.50
48515;DHT22;34309;47.260;2.796;2024-02-28T10:56:45;16.90;26.60
48515;DHT22;34309;47.260;2.796;2024-02-28T10:59:19;16.90;26.60
48515;DHT22;34309;47.260;2.796;2024-02-28T11:01:54;16.90;26.60
48515;DHT22;34309;47.260;2.796;2024-02-28T11:04:29;16.90;26.60
48515;DHT22;34309;47.260;2.796;2024-02-28T11:07:03;16.90;26.70
48515;DHT22;34309;47.260;2.796;2024-02-28T11:09:40;16.90;26.60
48515;DHT22;34309;47.260;2.796;2024-02-28T11:12:25;16.90;26.60
48515;DHT22;34309;47.260;2.796;2024-02-28T11:15:00;16.90;26.70
48515;DHT22;34309;47.260;2.796;2024-02-28T11:17:34;16.90;26.70
48515;DHT22;34309;47.260;2.796;2024-02-28T11:20:12;16.90;26.80
48515;DHT22;34309;47.260;2.796;2024-02-28T11:22:46;16.90;26.60
48515;DHT22;34309;47.260;2.796;2024-02-28T11:25:19;16.90;26.80
48515;DHT22;34309;47.260;2.796;2024-02-28T11:27:54;16.90;26.80
48515;DHT22;34309;47.260;2.796;2024-02-28T11:30:28;16.90;26.70
48515;DHT22;34309;47.260;2.796;2024-02-28T11:33:03;16.90;26.80
48515;DHT22;34309;47.260;2.796;2024-02-28T11:35:39;16.90;26.90
48515;DHT22;34309;47.260;2.796;2024-02-28T11:38:13;16.90;26.80
48515;DHT22;34309;47.260;2.796;2024-02-28T11:40:49;16.90;26.90
48515;DHT22;34309;47.260;2.796;2024-02-28T11:43:24;16.90;26.90
48515;DHT22;34309;47.260;2.796;2024-02-28T11:45:58;16.90;26.80
48515;DHT22;34309;47.260;2.796;2024-02-28T11:48:33;16.90;26.90
48515;DHT22;34309;47.260;2.796;2024-02-28T11:51:07;16.90;26.80
48515;DHT22;34309;47.260;2.796;2024-02-28T11:53:41;16.90;26.90
48515;DHT22;34309;47.260;2.796;2024-02-28T11:56:14;16.90;26.70
48515;DHT22;34309;47.260;2.796;2024-02-28T11:58:54;16.90;26.90
48515;DHT22;34309;47.260;2.796;2024-02-28T12:01:37;16.90;26.80
48515;DHT22;34309;47.260;2.796;2024-02-28T12:04:11;16.90;26.70
48515;DHT22;34309;47.260;2.796;2024-02-28T12:06:47;16.90;26.70
48515;DHT22;34309;47.260;2.796;2024-02-28T12:09:26;16.90;26.80
48515;DHT22;34309;47.260;2.796;2024-02-28T12:12:07;16.90;26.80
48515;DHT22;34309;47.260;2.796;2024-02-28T12:14:43;16.90;26.80
48515;DHT22;34309;47.260;2.796;2024-02-28T12:17:17;17.00;26.80
48515;DHT22;34309;47.260;2.796;2024-02-28T12:19:50;16.90;26.70
48515;DHT22;34309;47.260;2.796;2024-02-28T12:22:24;17.00;26.70
48515;DHT22;34309;47.260;2.796;2024-02-28T12:24:58;17.00;27.40
48515;DHT22;34309;47.260;2.796;2024-02-28T12:27:32;16.90;26.80
48515;DHT22;34309;47.260;2.796;2024-02-28T12:30:09;17.00;26.90
48515;DHT22;34309;47.260;2.796;2024-02-28T12:32:42;17.00;26.90
48515;DHT22;34309;47.260;2.796;2024-02-28T12:35:16;17.00;26.90
48515;DHT22;34309;47.260;2.796;2024-02-28T12:37:50;17.00;26.80
48515;DHT22;34309;47.260;2.796;2024-02-28T12:40:23;17.00;26.90
48515;DHT22;34309;47.260;2.796;2024-02-28T12:42:57;17.00;27.00
48515;DHT22;34309;47.260;2.796;2024-02-28T12:45:32;17.00;26.80
48515;DHT22;34309;47.260;2.796;2024-02-28T12:48:06;17.00;27.00
48515;DHT22;34309;47.260;2.796;2024-02-28T12:50:40;17.00;27.00
48515;DHT22;34309;47.260;2.796;2024-02-28T12:53:15;17.00;26.90
48515;DHT22;34309;47.260;2.796;2024-02-28T12:55:48;17.00;27.00
48515;DHT22;34309;47.260;2.796;2024-02-28T12:58:22;17.00;27.00
48515;DHT22;34309;47.260;2.796;2024-02-28T13:00:58;17.00;27.00
48515;DHT22;34309;47.260;2.796;2024-02-28T13:03:31;17.00;26.90
48515;DHT22;34309;47.260;2.796;2024-02-28T13:06:05;17.00;26.90
48515;DHT22;34309;47.260;2.796;2024-02-28T13:08:39;17.00;26.90
48515;DHT22;34309;47.260;2.796;2024-02-28T13:11:13;17.00;26.80
48515;DHT22;34309;47.260;2.796;2024-02-28T13:13:47;17.00;26.90
48515;DHT22;34309;47.260;2.796;2024-02-28T13:16:22;17.10;26.90
48515;DHT22;34309;47.260;2.796;2024-02-28T13:18:56;17.10;27.00
48515;DHT22;34309;47.260;2.796;2024-02-28T13:21:29;17.00;26.90
48515;DHT22;34309;47.260;2.796;2024-02-28T13:24:04;17.10;26.90
48515;DHT22;34309;47.260;2.796;2024-02-28T13:26:38;17.00;26.90
48515;DHT22;34309;47.260;2.796;2024-02-28T13:29:11;17.10;26.90
48515;DHT22;34309;47.260;2.796;2024-02-28T13:31:46;17.10;27.00
48515;DHT22;34309;47.260;2.796;2024-02-28T13:34:20;17.10;26.90
48515;DHT22;34309;47.260;2.796;2024-02-28T13:36:54;17.10;27.00
48515;DHT22;34309;47.260;2.796;2024-02-28T13:39:27;17.10;27.00
48515;DHT22;34309;47.260;2.796;2024-02-28T13:42:01;17.10;27.00
48515;DHT22;34309;47.260;2.796;2024-02-28T13:44:33;17.10;27.00
48515;DHT22;34309;47.260;2.796;2024-02-28T13:47:10;17.10;26.90
48515;DHT22;34309;47.260;2.796;2024-02-28T13:49:45;17.10;27.00
48515;DHT22;34309;47.260;2.796;2024-02-28T13:52:19;17.10;26.90
48515;DHT22;34309;47.260;2.796;2024-02-28T13:54:53;17.10;27.00
48515;DHT22;34309;47.260;2.796;2024-02-28T13:57:26;17.10;26.90
48515;DHT22;34309;47.260;2.796;2024-02-28T14:00:00;17.10;27.00
48515;DHT22;34309;47.260;2.796;2024-02-28T14:02:40;17.10;27.30
48515;DHT22;34309;47.260;2.796;2024-02-28T14:05:14;17.10;27.00
48515;DHT22;34309;47.260;2.796;2024-02-28T14:07:48;17.10;27.00
48515;DHT22;34309;47.260;2.796;2024-02-28T14:10:22;17.10;27.00
48515;DHT22;34309;47.260;2.796;2024-02-28T14:12:55;17.10;26.90
48515;DHT22;34309;47.260;2.796;2024-02-28T14:15:32;17.10;27.00
48515;DHT22;34309;47.260;2.796;2024-02-28T14:18:09;17.20;27.10
48515;DHT22;34309;47.260;2.796;2024-02-28T14:20:43;17.20;27.10
48515;DHT22;34309;47.260;2.796;2024-02-28T14:23:16;17.20;27.10
48515;DHT22;34309;47.260;2.796;2024-02-28T14:25:50;17.20;27.20
48515;DHT22;34309;47.260;2.796;2024-02-28T14:28:24;17.20;27.10
48515;DHT22;34309;47.260;2.796;2024-02-28T14:30:58;17.20;27.00
48515;DHT22;34309;47.260;2.796;2024-02-28T14:33:33;17.20;27.10
48515;DHT22;34309;47.260;2.796;2024-02-28T14:36:08;17.20;27.20
48515;DHT22;34309;47.260;2.796;2024-02-28T14:38:41;17.20;27.20
48515;DHT22;34309;47.260;2.796;2024-02-28T14:41:15;17.20;27.00
48515;DHT22;34309;47.260;2.796;2024-02-28T14:43:49;17.20;27.20
48515;DHT22;34309;47.260;2.796;2024-02-28T14:46:22;17.20;27.30
48515;DHT22;34309;47.260;2.796;2024-02-28T14:49:00;17.20;27.20
48515;DHT22;34309;47.260;2.796;2024-02-28T14:51:34;17.30;27.20
48515;DHT22;34309;47.260;2.796;2024-02-28T14:54:08;17.20;27.10
48515;DHT22;34309;47.260;2.796;2024-02-28T14:56:41;17.20;27.10
48515;DHT22;34309;47.260;2.796;2024-02-28T14:59:15;17.30;27.10
48515;DHT22;34309;47.260;2.796;2024-02-28T15:01:44;17.30;27.10
48515;DHT22;34309;47.260;2.796;2024-02-28T15:04:19;17.30;27.10
48515;DHT22;34309;47.260;2.796;2024-02-28T15:06:52;17.30;27.10
48515;DHT22;34309;47.260;2.796;2024-02-28T15:09:26;17.30;26.90
48515;DHT22;34309;47.260;2.796;2024-02-28T15:12:01;17.30;27.20
48515;DHT22;34309;47.260;2.796;2024-02-28T15:14:35;17.30;27.10
48515;DHT22;34309;47.260;2.796;2024-02-28T15:17:09;17.30;27.20
48515;DHT22;34309;47.260;2.796;2024-02-28T15:19:44;17.30;27.10
48515;DHT22;34309;47.260;2.796;2024-02-28T15:22:17;17.30;27.20
48515;DHT22;34309;47.260;2.796;2024-02-28T15:24:51;17.30;27.10
48515;DHT22;34309;47.260;2.796;2024-02-28T15:27:24;17.30;27.10
48515;DHT22;34309;47.260;2.796;2024-02-28T15:29:58;17.30;27.00
48515;DHT22;34309;47.260;2.796;2024-02-28T15:32:32;17.30;27.10
48515;DHT22;34309;47.260;2.796;2024-02-28T15:35:08;17.30;27.10
48515;DHT22;34309;47.260;2.796;2024-02-28T15:37:42;17.40;27.10
48515;DHT22;34309;47.260;2.796;2024-02-28T15:40:16;17.30;27.00
48515;DHT22;34309;47.260;2.796;2024-02-28T15:42:53;17.40;27.00
48515;DHT22;34309;47.260;2.796;2024-02-28T15:45:27;17.40;27.10
48515;DHT22;34309;47.260;2.796;2024-02-28T15:48:01;17.40;27.00
48515;DHT22;34309;47.260;2.796;2024-02-28T15:50:36;17.40;26.90
48515;DHT22;34309;47.260;2.796;2024-02-28T15:53:10;17.40;27.00
48515;DHT22;34309;47.260;2.796;2024-02-28T15:55:43;17.40;26.90
48515;DHT22;34309;47.260;2.796;2024-02-28T15:58:17;17.40;27.10
48515;DHT22;34309;47.260;2.796;2024-02-28T16:00:51;17.40;26.90
48515;DHT22;34309;47.260;2.796;2024-02-28T16:03:25;17.40;26.90
48515;DHT22;34309;47.260;2.796;2024-02-28T16:06:01;17.40;26.80
48515;DHT22;34309;47.260;2.796;2024-02-28T16:08:35;17.40;26.60
48515;DHT22;34309;47.260;2.796;2024-02-28T16:11:12;17.40;26.90
48515;DHT22;34309;47.260;2.796;2024-02-28T16:13:46;17.40;26.80
48515;DHT22;34309;47.260;2.796;2024-02-28T16:16:20;17.40;26.70
48515;DHT22;34309;47.260;2.796;2024-02-28T16:18:54;17.40;26.80